createdAt,value
2023-03-22T00:00:57.678Z,100881.22
2023-03-22T00:03:27.644Z,100878.94
2023-03-22T00:05:58.588Z,100876.03
2023-03-22T00:08:26.478Z,100873.00
2023-03-22T00:10:54.340Z,100874.34
2023-03-22T00:13:22.200Z,100862.06
2023-03-22T00:15:51.510Z,100867.63
2023-03-22T00:18:20.175Z,100860.38
2023-03-22T00:20:49.316Z,100861.22
2023-03-22T00:23:17.397Z,100848.50
2023-03-22T00:25:46.192Z,100848.19
2023-03-22T00:28:16.111Z,100846.69
2023-03-22T00:30:44.768Z,100840.94
2023-03-22T00:33:13.996Z,100845.16
2023-03-22T00:35:41.859Z,100839.41
2023-03-22T00:38:14.210Z,100843.00
2023-03-22T00:40:43.199Z,100839.22
2023-03-22T00:43:11.556Z,100837.38
2023-03-22T00:45:40.940Z,100833.47
2023-03-22T00:48:10.037Z,100832.69
2023-03-22T00:50:39.840Z,100827.69
2023-03-22T00:53:07.869Z,100827.38
2023-03-22T00:55:35.782Z,100816.19
2023-03-22T00:58:03.982Z,100812.41
2023-03-22T01:00:33.609Z,100814.03
2023-03-22T01:03:04.992Z,100810.22
2023-03-22T01:05:34.951Z,100810.69
2023-03-22T01:08:08.744Z,100810.38
2023-03-22T01:10:36.882Z,100799.91
2023-03-22T01:13:05.064Z,100789.03
2023-03-22T01:15:33.057Z,100784.03
2023-03-22T01:18:01.644Z,100777.84
2023-03-22T01:20:32.790Z,100769.66
2023-03-22T01:23:00.642Z,100766.53
2023-03-22T01:25:30.673Z,100776.19
2023-03-22T01:27:58.473Z,100768.50
2023-03-22T01:30:26.334Z,100764.97
2023-03-22T01:32:54.369Z,100752.91
2023-03-22T01:35:22.308Z,100759.97
2023-03-22T01:37:50.856Z,100759.22
2023-03-22T01:40:19.924Z,100746.06
2023-03-22T01:42:49.936Z,100741.06
2023-03-22T01:45:40.281Z,100734.09
2023-03-22T01:48:14.513Z,100727.44
2023-03-22T01:50:46.779Z,100719.28
2023-03-22T01:53:18.963Z,100717.78
2023-03-22T01:55:48.185Z,100717.03
2023-03-22T01:58:24.968Z,100711.59
2023-03-22T02:00:57.644Z,100709.94
2023-03-22T02:03:49.225Z,100700.25
2023-03-22T02:06:18.131Z,100693.94
2023-03-22T02:08:49.780Z,100688.06
2023-03-22T02:11:28.506Z,100684.56
2023-03-22T02:14:31.210Z,100687.94
2023-03-22T02:17:31.595Z,100681.28
2023-03-22T02:20:38.845Z,100672.69
2023-03-22T02:23:54.480Z,100668.72
2023-03-22T02:26:59.532Z,100665.69
2023-03-22T02:29:37.437Z,100670.38
2023-03-22T02:32:26.852Z,100658.75
2023-03-22T02:35:19.848Z,100655.72
2023-03-22T02:38:06.586Z,100644.53
2023-03-22T02:40:45.589Z,100651.50
2023-03-22T02:43:19.448Z,100642.44
2023-03-22T02:45:53.477Z,100631.09
2023-03-22T02:48:28.520Z,100627.91
2023-03-22T02:50:59.623Z,100634.75
2023-03-22T02:53:32.494Z,100622.66
2023-03-22T02:56:04.508Z,100622.97
2023-03-22T02:58:38.048Z,100624.03
2023-03-22T03:01:08.793Z,100620.41
2023-03-22T03:03:39.550Z,100617.56
2023-03-22T03:06:13.555Z,100614.69
2023-03-22T03:08:42.252Z,100610.00
2023-03-22T03:11:11.815Z,100612.59
2023-03-22T03:13:39.689Z,100608.66
2023-03-22T03:16:08.649Z,100612.31
2023-03-22T03:18:45.697Z,100607.16
2023-03-22T03:21:25.067Z,100609.88
2023-03-22T03:24:00.417Z,100612.91
2023-03-22T03:26:36.643Z,100615.19
2023-03-22T03:29:09.422Z,100622.75
2023-03-22T03:31:42.566Z,100625.47
2023-03-22T03:34:17.672Z,100613.69
2023-03-22T03:36:52.064Z,100614.13
2023-03-22T03:39:22.118Z,100615.66
2023-03-22T03:41:53.499Z,100607.78
2023-03-22T03:44:22.651Z,100612.03
2023-03-22T03:46:53.780Z,100615.06
2023-03-22T03:49:24.188Z,100615.69
2023-03-22T03:51:54.477Z,100617.03
2023-03-22T03:54:23.698Z,100602.97
2023-03-22T03:56:53.697Z,100606.44
2023-03-22T03:59:21.969Z,100604.78
2023-03-22T04:01:52.809Z,100602.03
2023-03-22T04:04:30.615Z,100604.00
2023-03-22T04:07:02.759Z,100613.13
2023-03-22T04:09:33.136Z,100610.69
2023-03-22T04:12:25.378Z,100606.44
2023-03-22T04:15:13.796Z,100614.31
2023-03-22T04:17:43.715Z,100614.31
2023-03-22T04:20:13.848Z,100607.97
2023-03-22T04:22:42.317Z,100599.06
2023-03-22T04:25:12.130Z,100610.22
2023-03-22T04:27:50.969Z,100589.97
2023-03-22T04:30:20.232Z,100586.00
2023-03-22T04:33:06.922Z,100587.53
2023-03-22T04:35:58.079Z,100601.59
2023-03-22T04:38:32.913Z,100577.84
2023-03-22T04:41:00.814Z,100571.19
2023-03-22T04:43:39.418Z,100577.41
2023-03-22T04:46:12.899Z,100576.94
2023-03-22T04:48:48.142Z,100583.16
2023-03-22T04:51:16.988Z,100578.75
2023-03-22T04:53:57.792Z,100580.88
2023-03-22T04:56:26.493Z,100579.69
2023-03-22T04:58:56.263Z,100574.97
2023-03-22T05:01:24.235Z,100562.84
2023-03-22T05:04:01.097Z,100573.00
2023-03-22T05:06:32.571Z,100568.00
2023-03-22T05:09:08.105Z,100562.56
2023-03-22T05:11:36.328Z,100550.47
2023-03-22T05:14:20.238Z,100555.59
2023-03-22T05:16:48.115Z,100552.13
2023-03-22T05:19:15.919Z,100558.47
2023-03-22T05:21:48.377Z,100554.25
2023-03-22T05:24:16.481Z,100560.13
2023-03-22T05:26:53.700Z,100550.47
2023-03-22T05:29:27.060Z,100553.19
2023-03-22T05:32:07.170Z,100550.59
2023-03-22T05:34:36.373Z,100557.56
2023-03-22T05:37:22.721Z,100546.38
2023-03-22T05:39:54.052Z,100540.19
2023-03-22T05:42:26.226Z,100542.59
2023-03-22T05:44:55.466Z,100548.94
2023-03-22T05:47:23.374Z,100544.72
2023-03-22T05:49:59.812Z,100541.22
2023-03-22T05:52:29.531Z,100546.38
2023-03-22T05:55:14.168Z,100530.47
2023-03-22T05:57:42.292Z,100534.88
2023-03-22T06:00:16.354Z,100530.19
2023-03-22T06:03:05.338Z,100522.47
2023-03-22T06:05:38.576Z,100525.66
2023-03-22T06:08:07.154Z,100531.53
2023-03-22T06:10:34.984Z,100531.84
2023-03-22T06:13:03.105Z,100527.91
2023-03-22T06:15:35.300Z,100531.69
2023-03-22T06:18:11.364Z,100535.03
2023-03-22T06:20:43.414Z,100533.38
2023-03-22T06:23:16.971Z,100544.25
2023-03-22T06:25:47.434Z,100536.09
2023-03-22T06:28:16.790Z,100532.00
2023-03-22T06:30:52.403Z,100533.06
2023-03-22T06:33:29.238Z,100543.22
2023-03-22T06:36:03.395Z,100540.63
2023-03-22T06:38:40.343Z,100533.47
2023-03-22T06:41:09.421Z,100529.13
2023-03-22T06:43:37.318Z,100531.03
2023-03-22T06:46:27.465Z,100542.25
2023-03-22T06:49:04.712Z,100548.34
2023-03-22T06:51:32.794Z,100546.50
2023-03-22T06:54:00.947Z,100541.06
2023-03-22T06:56:29.837Z,100541.38
2023-03-22T06:58:58.404Z,100549.91
2023-03-22T07:01:27.741Z,100535.22
2023-03-22T07:03:55.545Z,100534.16
2023-03-22T07:06:24.478Z,100541.13
2023-03-22T07:08:52.451Z,100540.81
2023-03-22T07:11:26.874Z,100536.59
2023-03-22T07:13:59.940Z,100538.56
2023-03-22T07:16:36.346Z,100526.91
2023-03-22T07:19:06.909Z,100546.75
2023-03-22T07:21:35.043Z,100547.50
2023-03-22T07:24:09.144Z,100542.03
2023-03-22T07:26:38.752Z,100539.31
2023-03-22T07:29:07.142Z,100545.50
2023-03-22T07:31:37.878Z,100534.91
2023-03-22T07:34:08.578Z,100535.50
2023-03-22T07:36:49.010Z,100542.63
2023-03-22T07:39:16.907Z,100535.00
2023-03-22T07:41:48.473Z,100540.75
2023-03-22T07:44:42.053Z,100537.88
2023-03-22T07:47:14.037Z,100526.50
2023-03-22T07:49:47.627Z,100535.13
2023-03-22T07:52:35.710Z,100523.72
2023-03-22T07:55:04.334Z,100514.63
2023-03-22T07:57:33.071Z,100538.88
2023-03-22T08:00:01.590Z,100533.44
2023-03-22T08:02:46.242Z,100546.13
2023-03-22T08:05:52.741Z,100544.41
2023-03-22T08:08:21.763Z,100540.94
2023-03-22T08:10:51.424Z,100532.69
2023-03-22T08:13:19.392Z,100538.84
2023-03-22T08:15:47.283Z,100529.19
2023-03-22T08:18:16.634Z,100524.50
2023-03-22T08:20:46.234Z,100523.75
2023-03-22T08:23:26.301Z,100539.25
2023-03-22T08:26:18.718Z,100526.53
2023-03-22T08:28:46.920Z,100526.06
2023-03-22T08:31:16.192Z,100525.88
2023-03-22T08:33:47.407Z,100534.28
2023-03-22T08:36:17.316Z,100523.81
2023-03-22T08:38:50.771Z,100521.66
2023-03-22T08:41:23.528Z,100525.13
2023-03-22T08:43:51.405Z,100532.56
2023-03-22T08:46:19.258Z,100522.41
2023-03-22T08:48:50.805Z,100522.81
2023-03-22T08:51:34.071Z,100525.66
2023-03-22T08:54:11.941Z,100511.44
2023-03-22T08:56:54.708Z,100525.63
2023-03-22T08:59:42.747Z,100525.63
2023-03-22T09:02:36.578Z,100520.16
2023-03-22T09:05:06.598Z,100519.28
2023-03-22T09:07:34.852Z,100524.38
2023-03-22T09:10:09.730Z,100518.31
2023-03-22T09:12:40.927Z,100535.47
2023-03-22T09:15:09.617Z,100528.78
2023-03-22T09:17:40.636Z,100530.47
2023-03-22T09:20:13.047Z,100520.00
2023-03-22T09:22:43.403Z,100538.84
2023-03-22T09:25:13.675Z,100541.75
2023-03-22T09:27:44.413Z,100536.44
2023-03-22T09:30:12.858Z,100526.94
2023-03-22T09:32:40.762Z,100530.44
2023-03-22T09:35:10.966Z,100534.81
2023-03-22T09:37:53.317Z,100525.94
2023-03-22T09:40:23.490Z,100528.28
2023-03-22T09:42:55.655Z,100545.00
2023-03-22T09:45:32.217Z,100540.19
2023-03-22T09:48:00.992Z,100536.91
2023-03-22T09:50:33.081Z,100542.69
2023-03-22T09:53:01.376Z,100532.75
2023-03-22T09:55:38.622Z,100544.13
2023-03-22T09:58:13.934Z,100526.72
2023-03-22T10:00:48.582Z,100533.84
2023-03-22T10:03:28.564Z,100522.06
2023-03-22T10:06:03.248Z,100533.88
2023-03-22T10:08:40.266Z,100523.91
2023-03-22T10:11:19.722Z,100525.28
2023-03-22T10:13:54.859Z,100528.00
2023-03-22T10:16:28.962Z,100526.31
2023-03-22T10:19:04.171Z,100520.88
2023-03-22T10:21:34.833Z,100525.41
2023-03-22T10:24:09.369Z,100517.97
2023-03-22T10:26:40.371Z,100517.53
2023-03-22T10:29:12.949Z,100524.03
2023-03-22T10:31:45.014Z,100525.81
2023-03-22T10:34:20.867Z,100526.44
2023-03-22T10:36:52.714Z,100529.47
2023-03-22T10:39:30.368Z,100521.72
2023-03-22T10:42:01.580Z,100522.22
2023-03-22T10:44:34.707Z,100526.91
2023-03-22T10:47:08.278Z,100523.88
2023-03-22T10:49:40.383Z,100531.28
2023-03-22T10:52:23.991Z,100535.69
2023-03-22T10:54:51.881Z,100524.50
2023-03-22T10:57:19.675Z,100524.50
2023-03-22T10:59:49.771Z,100515.41
2023-03-22T11:02:22.864Z,100529.03
2023-03-22T11:04:52.594Z,100514.19
2023-03-22T11:07:32.825Z,100530.38
2023-03-22T11:10:16.342Z,100514.78
2023-03-22T11:12:49.359Z,100509.31
2023-03-22T11:15:31.298Z,100512.34
2023-03-22T11:18:02.431Z,100496.59
2023-03-22T11:20:37.478Z,100502.91
2023-03-22T11:23:07.062Z,100507.47
2023-03-22T11:25:37.300Z,100508.22
2023-03-22T11:28:11.034Z,100533.50
2023-03-22T11:30:39.621Z,100502.56
2023-03-22T11:33:18.592Z,100511.06
2023-03-22T11:35:48.617Z,100512.09
2023-03-22T11:38:29.498Z,100506.19
2023-03-22T11:41:00.632Z,100486.47
2023-03-22T11:43:29.186Z,100505.84
2023-03-22T11:45:59.466Z,100501.16
2023-03-22T11:48:30.235Z,100504.91
2023-03-22T11:51:06.800Z,100503.72
2023-03-22T11:53:39.379Z,100505.97
2023-03-22T11:56:10.583Z,100511.72
2023-03-22T11:58:51.484Z,100518.22
2023-03-22T12:01:24.651Z,100530.66
2023-03-22T12:03:56.919Z,100517.78
2023-03-22T12:06:28.807Z,100529.91
2023-03-22T12:09:01.474Z,100518.53
2023-03-22T12:11:34.403Z,100523.53
2023-03-22T12:14:05.988Z,100533.22
2023-03-22T12:16:41.938Z,100528.03
2023-03-22T12:19:23.653Z,100508.03
2023-03-22T12:21:53.031Z,100508.34
2023-03-22T12:24:28.194Z,100516.06
2023-03-22T12:27:00.432Z,100515.63
2023-03-22T12:29:30.555Z,100515.91
2023-03-22T12:32:03.355Z,100520.88
2023-03-22T12:34:39.564Z,100513.75
2023-03-22T12:37:10.002Z,100511.78
2023-03-22T12:39:44.161Z,100527.69
2023-03-22T12:42:19.751Z,100523.28
2023-03-22T12:45:02.235Z,100517.81
2023-03-22T12:47:40.595Z,100513.88
2023-03-22T12:50:14.929Z,100512.66
2023-03-22T12:52:47.118Z,100495.06
2023-03-22T12:55:24.924Z,100505.97
2023-03-22T12:57:54.590Z,100500.81
2023-03-22T13:00:28.434Z,100494.13
2023-03-22T13:03:02.236Z,100498.34
2023-03-22T13:05:33.294Z,100500.16
2023-03-22T13:08:04.053Z,100505.63
2023-03-22T13:11:03.423Z,100500.47
2023-03-22T13:13:42.394Z,100504.41
2023-03-22T13:16:22.447Z,100515.31
2023-03-22T13:19:04.726Z,100514.56
2023-03-22T13:21:35.643Z,100504.84
2023-03-22T13:24:23.632Z,100514.56
2023-03-22T13:26:55.342Z,100517.59
2023-03-22T13:29:25.401Z,100516.34
2023-03-22T13:31:58.931Z,100518.63
2023-03-22T13:34:38.703Z,100520.91
2023-03-22T13:37:10.925Z,100511.03
2023-03-22T13:39:39.349Z,100514.06
2023-03-22T13:42:21.116Z,100527.97
2023-03-22T13:44:58.442Z,100512.06
2023-03-22T13:47:36.230Z,100514.81
2023-03-22T13:50:12.708Z,100513.28
2023-03-22T13:52:44.149Z,100503.28
2023-03-22T13:55:37.766Z,100500.72
2023-03-22T13:58:11.359Z,100495.00
2023-03-22T14:00:44.844Z,100497.44
2023-03-22T14:03:29.403Z,100497.72
2023-03-22T14:06:09.489Z,100497.25
2023-03-22T14:08:38.580Z,100496.50
2023-03-22T14:11:20.683Z,100498.94
2023-03-22T14:13:52.861Z,100484.53
2023-03-22T14:16:30.300Z,100492.28
2023-03-22T14:18:59.061Z,100491.34
2023-03-22T14:21:34.995Z,100484.63
